createdAt,value
2022-08-22T00:02:37.244Z,96.61
2022-08-22T00:02:42.336Z,95.40
2022-08-22T00:02:49.265Z,96.26
2022-08-22T00:02:54.107Z,95.65
2022-08-22T00:03:01.248Z,95.96
2022-08-22T00:05:18.203Z,96.70
2022-08-22T00:08:23.251Z,96.70
2022-08-22T00:11:06.339Z,96.66
2022-08-22T00:13:43.128Z,96.64
2022-08-22T00:16:49.265Z,96.83
2022-08-22T00:19:36.252Z,97.08
2022-08-22T00:22:13.649Z,96.25
2022-08-22T00:25:32.250Z,97.75
2022-08-22T00:28:24.617Z,97.39
2022-08-22T00:31:15.594Z,97.54
2022-08-22T00:33:53.012Z,98.18
2022-08-22T00:36:47.842Z,98.35
2022-08-22T00:39:17.852Z,100.00
2022-08-22T00:41:55.304Z,99.44
2022-08-22T00:45:10.882Z,99.28
2022-08-22T00:47:38.243Z,98.81
2022-08-22T00:50:39.913Z,98.36
2022-08-22T00:53:35.799Z,98.70
2022-08-22T00:56:06.368Z,98.69
2022-08-22T00:58:33.780Z,99.77
2022-08-22T01:01:11.639Z,99.41
2022-08-22T01:03:46.716Z,98.82
2022-08-22T01:06:47.807Z,99.41
2022-08-22T01:09:58.900Z,99.86
2022-08-22T01:12:46.400Z,99.37
2022-08-22T01:15:22.921Z,99.10
2022-08-22T01:18:07.200Z,99.80
2022-08-22T01:21:04.454Z,99.37
2022-08-22T01:24:02.488Z,99.23
2022-08-22T01:26:48.336Z,98.84
2022-08-22T01:29:37.978Z,99.09
2022-08-22T01:32:29.887Z,98.55
2022-08-22T01:35:39.199Z,98.23
2022-08-22T01:38:24.433Z,97.88
2022-08-22T01:41:03.358Z,97.88
2022-08-22T01:44:00.166Z,97.70
2022-08-22T01:46:35.237Z,97.56
2022-08-22T01:49:08.117Z,97.58
2022-08-22T01:51:44.127Z,97.81
2022-08-22T01:54:27.039Z,97.64
2022-08-22T01:57:02.033Z,97.48
2022-08-22T01:59:52.737Z,97.35
2022-08-22T02:02:29.625Z,97.44
2022-08-22T02:05:22.357Z,97.54
2022-08-22T02:07:56.120Z,97.54
2022-08-22T02:10:41.936Z,97.28
2022-08-22T02:13:12.929Z,97.72
2022-08-22T02:15:40.905Z,97.41
2022-08-22T02:18:12.317Z,97.68
2022-08-22T02:20:45.768Z,97.47
2022-08-22T02:23:25.540Z,97.69
2022-08-22T02:26:04.760Z,97.60
2022-08-22T02:28:56.936Z,97.58
2022-08-22T02:31:43.083Z,97.70
2022-08-22T02:34:38.669Z,97.64
2022-08-22T02:37:32.956Z,97.63
2022-08-22T02:40:22.167Z,97.64
2022-08-22T02:43:03.255Z,97.92
2022-08-22T02:45:56.210Z,98.02
2022-08-22T02:48:35.616Z,97.98
2022-08-22T02:51:15.289Z,97.58
2022-08-22T02:53:56.264Z,97.58
2022-08-22T02:56:49.586Z,97.36
2022-08-22T02:59:32.045Z,97.56
2022-08-22T03:02:27.644Z,97.65
2022-08-22T03:05:02.079Z,97.48
2022-08-22T03:07:39.269Z,97.29
2022-08-22T03:10:26.472Z,97.39
2022-08-22T03:13:07.809Z,96.98
2022-08-22T03:15:49.379Z,97.09
2022-08-22T03:18:43.547Z,96.77
2022-08-22T03:21:27.801Z,96.83
2022-08-22T03:24:05.570Z,96.43
2022-08-22T03:26:48.340Z,96.25
2022-08-22T03:29:24.762Z,96.14
2022-08-22T03:32:14.985Z,96.09
2022-08-22T03:35:03.531Z,96.11
2022-08-22T03:37:40.541Z,96.06
2022-08-22T03:40:20.134Z,95.92
2022-08-22T03:43:02.834Z,95.83
2022-08-22T03:45:38.521Z,95.97
2022-08-22T03:48:43.796Z,95.75
2022-08-22T03:51:39.428Z,95.82
2022-08-22T03:54:34.603Z,96.05
2022-08-22T03:57:21.056Z,95.68
2022-08-22T03:59:59.941Z,95.73
2022-08-22T04:02:52.163Z,95.61
2022-08-22T04:05:36.411Z,95.53
2022-08-22T04:08:26.452Z,96.06
2022-08-22T04:10:57.041Z,96.00
2022-08-22T04:13:56.480Z,96.33
2022-08-22T04:16:42.016Z,96.34
2022-08-22T04:19:29.841Z,95.97
2022-08-22T04:22:16.485Z,95.76
2022-08-22T04:25:08.162Z,95.98
2022-08-22T04:27:58.337Z,96.11
2022-08-22T04:30:34.512Z,96.05
2022-08-22T04:33:17.169Z,96.30
2022-08-22T04:36:02.101Z,96.31
2022-08-22T04:39:05.116Z,95.86
2022-08-22T04:41:54.115Z,95.70
2022-08-22T04:44:39.328Z,96.85
2022-08-22T04:47:58.718Z,97.12
2022-08-22T04:50:31.371Z,96.02
2022-08-22T04:53:12.718Z,96.03
2022-08-22T04:55:50.960Z,95.70
2022-08-22T04:58:33.660Z,96.10
2022-08-22T05:01:07.404Z,95.47
2022-08-22T05:03:45.857Z,94.99
2022-08-22T05:06:16.164Z,94.54
2022-08-22T05:08:48.414Z,94.86
2022-08-22T05:11:23.900Z,94.14
2022-08-22T05:14:00.017Z,93.97
2022-08-22T05:16:33.591Z,94.10
2022-08-22T05:19:05.537Z,94.38
2022-08-22T05:21:37.561Z,94.34
2022-08-22T05:24:17.167Z,94.16
2022-08-22T05:26:50.560Z,93.80
2022-08-22T05:29:24.832Z,93.21
2022-08-22T05:32:07.473Z,93.01
2022-08-22T05:34:42.040Z,93.37
2022-08-22T05:37:24.732Z,93.56
2022-08-22T05:39:56.570Z,93.40
2022-08-22T05:42:37.477Z,93.65
2022-08-22T05:45:11.466Z,93.02
2022-08-22T05:47:44.996Z,93.13
2022-08-22T05:50:27.683Z,92.62
2022-08-22T05:53:25.288Z,92.49
2022-08-22T05:55:59.035Z,93.34
2022-08-22T05:58:38.952Z,93.35
2022-08-22T06:01:18.649Z,91.78
2022-08-22T06:04:01.803Z,92.05
2022-08-22T06:06:32.903Z,92.05
2022-08-22T06:09:06.728Z,91.88
2022-08-22T06:11:42.523Z,91.46
2022-08-22T06:14:24.721Z,91.42
2022-08-22T06:17:10.673Z,90.93
2022-08-22T06:19:49.742Z,90.72
2022-08-22T06:22:22.065Z,90.99
2022-08-22T06:24:51.884Z,90.89
2022-08-22T06:27:23.108Z,90.60
2022-08-22T06:29:57.746Z,90.76
2022-08-22T06:32:58.938Z,90.60
2022-08-22T06:35:24.995Z,90.74
2022-08-22T06:37:58.902Z,90.62
2022-08-22T06:40:29.476Z,89.93
2022-08-22T06:42:58.625Z,89.87
2022-08-22T06:45:31.143Z,89.84
2022-08-22T06:48:04.924Z,89.53
2022-08-22T06:50:35.775Z,90.14
2022-08-22T06:53:20.294Z,89.82
2022-08-22T06:55:52.580Z,88.51
2022-08-22T06:58:30.864Z,88.17
2022-08-22T07:01:18.200Z,87.33
2022-08-22T07:03:52.611Z,86.81
2022-08-22T07:06:36.814Z,87.00
2022-08-22T07:09:07.039Z,86.65
2022-08-22T07:11:39.391Z,86.43
2022-08-22T07:14:11.631Z,86.22
2022-08-22T07:16:53.774Z,86.05
2022-08-22T07:19:37.305Z,86.06
2022-08-22T07:22:33.184Z,85.82
2022-08-22T07:25:04.476Z,85.30
2022-08-22T07:27:48.769Z,85.04
2022-08-22T07:30:27.679Z,85.48
2022-08-22T07:33:25.244Z,85.72
2022-08-22T07:35:59.950Z,86.02
2022-08-22T07:38:45.032Z,86.45
2022-08-22T07:41:21.047Z,86.76
2022-08-22T07:43:55.412Z,87.28
2022-08-22T07:46:32.714Z,87.08
2022-08-22T07:49:14.277Z,85.77
2022-08-22T07:51:46.914Z,85.34
2022-08-22T07:54:27.070Z,85.52
2022-08-22T07:56:57.761Z,85.10
2022-08-22T07:59:28.195Z,85.93
2022-08-22T08:01:59.984Z,85.95
2022-08-22T08:04:33.478Z,85.86
2022-08-22T08:07:08.281Z,85.63
2022-08-22T08:09:51.297Z,87.04
2022-08-22T08:12:24.068Z,85.48
2022-08-22T08:14:55.725Z,85.60
2022-08-22T08:17:32.266Z,86.18
2022-08-22T08:20:16.153Z,85.94
2022-08-22T08:22:45.983Z,86.70
2022-08-22T08:25:22.135Z,85.91
2022-08-22T08:28:09.907Z,86.29
2022-08-22T08:30:47.691Z,86.37
2022-08-22T08:33:25.674Z,84.99
2022-08-22T08:36:07.103Z,84.89
2022-08-22T08:38:52.272Z,85.43
2022-08-22T08:41:44.292Z,85.27
2022-08-22T08:44:11.663Z,85.00
2022-08-22T08:47:24.551Z,84.92
2022-08-22T08:50:29.894Z,85.52
2022-08-22T08:53:03.730Z,85.13
2022-08-22T08:55:53.549Z,85.53
2022-08-22T08:58:34.561Z,85.28
2022-08-22T09:01:16.874Z,85.05
2022-08-22T09:04:15.584Z,84.46
2022-08-22T09:06:58.704Z,84.28
2022-08-22T09:10:11.723Z,83.87
2022-08-22T09:13:18.280Z,84.60
2022-08-22T09:16:27.445Z,85.23
2022-08-22T09:19:24.493Z,84.28
2022-08-22T09:22:14.441Z,83.15
2022-08-22T09:25:07.245Z,83.76
2022-08-22T09:28:13.832Z,82.65
2022-08-22T09:30:43.808Z,83.55
2022-08-22T09:33:20.264Z,83.12
2022-08-22T09:35:47.644Z,81.62
2022-08-22T09:38:28.209Z,82.23
2022-08-22T09:41:11.091Z,81.20
2022-08-22T09:43:48.536Z,81.50
2022-08-22T09:46:31.398Z,81.58
2022-08-22T09:49:23.469Z,80.84
2022-08-22T09:52:14.409Z,80.33
2022-08-22T09:55:02.693Z,82.05
2022-08-22T09:57:55.412Z,80.86
2022-08-22T10:00:40.601Z,80.82
2022-08-22T10:03:49.892Z,81.53
2022-08-22T10:06:27.623Z,80.92
2022-08-22T10:09:04.674Z,81.79
2022-08-22T10:11:45.824Z,80.80
2022-08-22T10:14:24.198Z,79.85
2022-08-22T10:17:21.823Z,80.54
2022-08-22T10:20:00.799Z,81.78
2022-08-22T10:22:56.076Z,80.22
2022-08-22T10:25:34.679Z,78.37
2022-08-22T10:28:37.813Z,77.60
2022-08-22T10:31:12.006Z,78.65
2022-08-22T10:33:50.940Z,78.56
2022-08-22T10:36:30.883Z,77.84
2022-08-22T10:39:01.448Z,78.23
2022-08-22T10:42:09.201Z,78.06
2022-08-22T10:45:06.017Z,79.00
2022-08-22T10:47:58.952Z,78.48
2022-08-22T10:50:33.433Z,77.60
2022-08-22T10:53:34.730Z,77.34
2022-08-22T10:56:32.484Z,76.73
2022-08-22T10:59:08.642Z,76.62
2022-08-22T11:01:46.675Z,78.03
2022-08-22T11:04:31.308Z,76.78
2022-08-22T11:07:21.841Z,75.45
2022-08-22T11:10:01.540Z,76.37
2022-08-22T11:12:49.467Z,75.29
2022-08-22T11:15:54.959Z,74.88
2022-08-22T11:19:01.996Z,75.58
2022-08-22T11:21:46.063Z,74.78
2022-08-22T11:24:35.737Z,73.97
2022-08-22T11:27:35.302Z,74.75
2022-08-22T11:30:30.978Z,74.06
2022-08-22T11:33:46.424Z,73.16
2022-08-22T11:36:31.107Z,73.25
2022-08-22T11:39:18.359Z,73.55
2022-08-22T11:41:58.332Z,74.14
2022-08-22T11:44:34.571Z,73.83
2022-08-22T11:47:10.996Z,74.02
2022-08-22T11:49:55.705Z,73.74
2022-08-22T11:52:53.677Z,74.62
2022-08-22T11:55:33.274Z,74.75
2022-08-22T11:58:14.232Z,74.82
2022-08-22T12:01:17.191Z,75.39
2022-08-22T12:03:58.669Z,76.53
2022-08-22T12:06:56.209Z,76.71
2022-08-22T12:09:33.824Z,77.21
2022-08-22T12:12:23.224Z,76.66
2022-08-22T12:15:29.390Z,76.86
2022-08-22T12:18:46.060Z,76.90
2022-08-22T12:21:36.862Z,76.54
2022-08-22T12:24:19.226Z,77.31
2022-08-22T12:27:07.947Z,76.21
2022-08-22T12:29:57.360Z,76.11
2022-08-22T12:32:57.212Z,75.08
2022-08-22T12:35:46.688Z,75.35
2022-08-22T12:38:38.220Z,74.60
2022-08-22T12:41:35.134Z,74.04
2022-08-22T12:44:41.083Z,73.50
2022-08-22T12:47:26.711Z,75.03
2022-08-22T12:50:05.936Z,72.69
2022-08-22T12:52:39.808Z,72.05
2022-08-22T12:55:25.409Z,72.04
2022-08-22T12:58:22.487Z,71.49
2022-08-22T13:00:52.706Z,69.96
2022-08-22T13:03:35.361Z,70.24
2022-08-22T13:06:07.816Z,71.49
2022-08-22T13:08:45.604Z,69.30
2022-08-22T13:11:22.426Z,69.56
2022-08-22T13:13:57.058Z,69.90
2022-08-22T13:16:34.817Z,68.72
2022-08-22T13:19:13.377Z,68.67
2022-08-22T13:21:53.047Z,68.86
2022-08-22T13:25:11.320Z,70.63
2022-08-22T13:27:50.698Z,67.81
2022-08-22T13:30:26.546Z,68.31
2022-08-22T13:33:02.939Z,68.69
2022-08-22T13:35:42.211Z,69.49
2022-08-22T13:38:26.570Z,69.52
2022-08-22T13:40:57.501Z,69.55
2022-08-22T13:43:30.100Z,69.09
2022-08-22T13:46:04.833Z,68.11
2022-08-22T13:48:49.422Z,69.30
2022-08-22T13:51:51.065Z,68.83
2022-08-22T13:54:26.952Z,67.34
2022-08-22T13:57:17.761Z,68.51
2022-08-22T14:00:01.529Z,69.55
2022-08-22T14:03:05.733Z,69.55
2022-08-22T14:05:42.396Z,69.54
2022-08-22T14:08:12.538Z,70.47
2022-08-22T14:11:12.544Z,71.56
2022-08-22T14:14:27.905Z,72.43
2022-08-22T14:16:59.656Z,73.32
2022-08-22T14:19:31.042Z,72.73
2022-08-22T14:22:14.367Z,73.19
2022-08-22T14:24:55.642Z,73.42
2022-08-22T14:27:28.973Z,73.19
2022-08-22T14:30:03.567Z,71.94
2022-08-22T14:32:41.711Z,72.17
2022-08-22T14:35:23.150Z,72.90
2022-08-22T14:37:59.170Z,73.29
2022-08-22T14:40:34.388Z,73.12
2022-08-22T14:43:06.325Z,73.34
2022-08-22T14:45:43.843Z,73.30
2022-08-22T14:48:30.930Z,72.53
2022-08-22T14:51:08.421Z,72.57
2022-08-22T14:53:39.295Z,72.67
2022-08-22T14:56:19.080Z,74.27
2022-08-22T14:58:51.898Z,74.02
2022-08-22T15:01:24.365Z,74.15
2022-08-22T15:03:59.239Z,74.04
2022-08-22T15:06:54.972Z,74.33
2022-08-22T15:09:31.792Z,74.35
2022-08-22T15:12:01.728Z,75.39
2022-08-22T15:14:36.900Z,75.01
2022-08-22T15:17:08.427Z,75.55
2022-08-22T15:19:44.495Z,75.07
2022-08-22T15:22:19.040Z,75.12
2022-08-22T15:24:56.864Z,75.50
2022-08-22T15:27:27.737Z,76.09
2022-08-22T15:30:07.209Z,76.05
2022-08-22T15:32:48.831Z,76.00
2022-08-22T15:35:30.108Z,76.50
2022-08-22T15:38:27.914Z,76.73
2022-08-22T15:41:16.431Z,76.89
2022-08-22T15:43:49.475Z,77.53
2022-08-22T15:46:34.099Z,76.93
2022-08-22T15:49:06.447Z,77.11
2022-08-22T15:51:47.172Z,77.66
2022-08-22T15:54:24.796Z,78.00
2022-08-22T15:56:52.968Z,77.83
2022-08-22T15:59:29.423Z,77.40
2022-08-22T16:02:04.714Z,77.69
2022-08-22T16:04:43.731Z,77.74
2022-08-22T16:07:42.618Z,78.21
2022-08-22T16:10:32.065Z,77.84
2022-08-22T16:13:11.802Z,77.94
2022-08-22T16:15:52.838Z,77.85
2022-08-22T16:18:39.712Z,77.69
2022-08-22T16:21:30.562Z,78.12
2022-08-22T16:23:57.967Z,77.68
2022-08-22T16:26:31.647Z,77.69
2022-08-22T16:29:17.363Z,78.02
2022-08-22T16:31:48.807Z,78.39
2022-08-22T16:34:18.914Z,78.75
2022-08-22T16:37:14.564Z,78.75
2022-08-22T16:39:48.176Z,79.13
2022-08-22T16:42:15.908Z,79.91
2022-08-22T16:45:08.369Z,80.05
2022-08-22T16:47:41.333Z,79.70
2022-08-22T16:50:23.700Z,79.94
2022-08-22T16:52:53.362Z,80.41
2022-08-22T16:55:29.762Z,80.66
2022-08-22T16:58:06.378Z,81.57
2022-08-22T17:01:04.151Z,82.86
2022-08-22T17:03:31.899Z,83.63
2022-08-22T17:06:18.322Z,83.65
2022-08-22T17:08:58.274Z,83.66
2022-08-22T17:11:25.673Z,84.17
2022-08-22T17:14:17.658Z,84.51
2022-08-22T17:17:17.716Z,85.81
2022-08-22T17:19:57.951Z,84.99
2022-08-22T17:22:37.611Z,86.27
2022-08-22T17:25:32.677Z,84.93
2022-08-22T17:28:34.462Z,85.36
2022-08-22T17:31:16.968Z,85.30
2022-08-22T17:34:02.623Z,85.58
2022-08-22T17:36:50.841Z,86.26
2022-08-22T17:39:29.070Z,86.28
2022-08-22T17:42:20.870Z,86.18
2022-08-22T17:44:58.741Z,86.50
2022-08-22T17:47:43.740Z,86.44
2022-08-22T17:50:32.730Z,87.15
2022-08-22T17:53:16.510Z,87.16
2022-08-22T17:56:11.852Z,87.55
2022-08-22T17:58:49.729Z,87.75
2022-08-22T18:01:43.224Z,87.77
2022-08-22T18:04:19.108Z,88.32
2022-08-22T18:06:55.511Z,88.45
2022-08-22T18:09:45.152Z,88.19
2022-08-22T18:12:46.800Z,88.39
2022-08-22T18:15:39.946Z,88.25
2022-08-22T18:18:30.335Z,88.22
2022-08-22T18:21:25.311Z,87.83
2022-08-22T18:23:59.076Z,87.74
2022-08-22T18:26:31.048Z,87.71
2022-08-22T18:29:27.489Z,87.67
2022-08-22T18:32:08.663Z,88.22
2022-08-22T18:34:50.791Z,88.59
2022-08-22T18:37:39.656Z,89.33
2022-08-22T18:40:31.908Z,90.04
2022-08-22T18:43:23.936Z,90.04
2022-08-22T18:45:51.399Z,89.90
2022-08-22T18:48:31.884Z,89.21
2022-08-22T18:51:22.432Z,89.28
2022-08-22T18:54:04.248Z,88.93
2022-08-22T18:56:33.343Z,89.04
2022-08-22T18:59:19.660Z,89.90
2022-08-22T19:01:50.815Z,89.71
2022-08-22T19:04:18.497Z,90.25
2022-08-22T19:07:00.309Z,90.74
2022-08-22T19:09:49.698Z,89.88
2022-08-22T19:12:23.148Z,90.24
2022-08-22T19:15:18.583Z,89.89
2022-08-22T19:18:14.075Z,90.28
2022-08-22T19:21:00.404Z,90.17
2022-08-22T19:23:37.432Z,90.08
2022-08-22T19:26:23.793Z,90.72
2022-08-22T19:28:55.235Z,90.79
2022-08-22T19:31:42.887Z,90.78
2022-08-22T19:34:25.465Z,90.70
2022-08-22T19:37:11.582Z,91.56
2022-08-22T19:40:10.724Z,91.74
2022-08-22T19:42:41.451Z,91.56
2022-08-22T19:45:19.188Z,91.37
2022-08-22T19:47:57.523Z,91.50
2022-08-22T19:50:31.780Z,91.29
2022-08-22T19:53:11.352Z,91.22
2022-08-22T19:55:38.776Z,91.57
2022-08-22T19:58:13.055Z,92.12
2022-08-22T20:01:03.901Z,92.35
2022-08-22T20:03:54.629Z,92.24
2022-08-22T20:06:43.556Z,92.71
2022-08-22T20:09:11.998Z,92.97
2022-08-22T20:11:42.336Z,93.07
2022-08-22T20:14:22.433Z,93.12
2022-08-22T20:17:16.680Z,92.93
2022-08-22T20:20:17.670Z,92.43
2022-08-22T20:22:52.955Z,92.09
2022-08-22T20:25:42.915Z,91.93
2022-08-22T20:28:29.632Z,92.18
2022-08-22T20:31:00.810Z,93.03
2022-08-22T20:33:36.917Z,93.02
2022-08-22T20:36:27.277Z,93.28
2022-08-22T20:39:02.931Z,92.69
2022-08-22T20:41:43.695Z,92.69
2022-08-22T20:44:28.043Z,92.91
2022-08-22T20:47:01.971Z,93.51
2022-08-22T20:49:41.816Z,93.45
2022-08-22T20:52:27.255Z,93.62
2022-08-22T20:55:27.343Z,93.82
2022-08-22T20:58:21.591Z,93.83
2022-08-22T21:00:53.454Z,93.71
2022-08-22T21:03:36.693Z,94.04
2022-08-22T21:06:12.181Z,94.30
2022-08-22T21:08:40.334Z,94.27
2022-08-22T21:11:28.539Z,93.66
2022-08-22T21:13:56.031Z,93.87
2022-08-22T21:16:33.394Z,94.21
2022-08-22T21:19:04.011Z,94.25
2022-08-22T21:21:34.894Z,94.03
2022-08-22T21:24:06.161Z,94.40
2022-08-22T21:26:51.696Z,94.13
2022-08-22T21:29:27.588Z,93.78
2022-08-22T21:32:08.376Z,93.92
2022-08-22T21:34:46.236Z,94.03
2022-08-22T21:37:32.200Z,94.33
2022-08-22T21:40:14.779Z,94.08
2022-08-22T21:42:46.343Z,94.13
2022-08-22T21:45:28.659Z,94.08
2022-08-22T21:47:57.054Z,94.04
2022-08-22T21:50:28.525Z,94.36
2022-08-22T21:52:56.114Z,94.73
2022-08-22T21:55:30.296Z,94.38
2022-08-22T21:58:02.237Z,94.67
2022-08-22T22:00:39.007Z,95.42
2022-08-22T22:03:07.478Z,95.35
2022-08-22T22:05:35.694Z,95.81
2022-08-22T22:08:04.149Z,96.13
2022-08-22T22:10:32.949Z,94.94
2022-08-22T22:13:00.876Z,95.50
2022-08-22T22:15:32.066Z,95.65
2022-08-22T22:18:00.558Z,95.38
2022-08-22T22:20:29.458Z,95.58
2022-08-22T22:22:56.932Z,95.43
2022-08-22T22:25:40.008Z,95.03
2022-08-22T22:28:15.578Z,95.78
2022-08-22T22:30:45.028Z,95.14
2022-08-22T22:33:12.499Z,94.50
2022-08-22T22:35:40.621Z,94.65
2022-08-22T22:38:08.787Z,94.70
2022-08-22T22:40:36.427Z,95.00
2022-08-22T22:43:04.244Z,95.43
2022-08-22T22:45:32.069Z,95.39
2022-08-22T22:47:59.740Z,95.82
2022-08-22T22:50:27.568Z,95.81
2022-08-22T22:52:55.431Z,96.00
2022-08-22T22:55:24.604Z,95.86
2022-08-22T22:57:58.800Z,95.64
2022-08-22T23:00:31.395Z,95.72
2022-08-22T23:03:01.176Z,95.52
2022-08-22T23:05:30.132Z,95.88
2022-08-22T23:07:58.292Z,95.91
2022-08-22T23:10:28.424Z,96.36
2022-08-22T23:12:56.356Z,96.29
2022-08-22T23:15:23.889Z,96.24
2022-08-22T23:17:51.377Z,96.21
2022-08-22T23:20:19.646Z,95.74
2022-08-22T23:22:47.587Z,95.69
2022-08-22T23:25:15.233Z,95.44
2022-08-22T23:27:43.332Z,95.86
2022-08-22T23:30:11.432Z,95.84
2022-08-22T23:32:39.357Z,95.87
2022-08-22T23:35:07.997Z,95.90
2022-08-22T23:37:35.487Z,95.80
2022-08-22T23:40:07.519Z,95.55
2022-08-22T23:42:35.325Z,95.78
2022-08-22T23:45:03.162Z,96.10
2022-08-22T23:47:30.698Z,96.29
2022-08-22T23:49:58.391Z,96.57
2022-08-22T23:52:30.408Z,96.67
2022-08-22T23:54:58.987Z,96.58
2022-08-22T23:57:27.807Z,96.24
2022-08-22T23:59:57.874Z,96.33
